sensor_id;sensor_type;location;lat;lon;timestamp;P1;durP1;ratioP1;P2;durP2;ratioP2
51122;SDS011;37162;41.724;13.346;2022-10-16T00:00:42;6.35;;;4.40;;
51122;SDS011;37162;41.724;13.346;2022-10-16T00:03:08;6.25;;;4.53;;
51122;SDS011;37162;41.724;13.346;2022-10-16T00:05:38;6.22;;;4.55;;
51122;SDS011;37162;41.724;13.346;2022-10-16T00:08:06;5.97;;;4.68;;
51122;SDS011;37162;41.724;13.346;2022-10-16T00:10:31;6.97;;;4.25;;
51122;SDS011;37162;41.724;13.346;2022-10-16T00:12:57;6.35;;;4.60;;
51122;SDS011;37162;41.724;13.346;2022-10-16T00:15:22;6.32;;;4.47;;
51122;SDS011;37162;41.724;13.346;2022-10-16T00:17:47;6.45;;;4.82;;
51122;SDS011;37162;41.724;13.346;2022-10-16T00:20:13;5.60;;;4.30;;
51122;SDS011;37162;41.724;13.346;2022-10-16T00:22:38;6.63;;;4.78;;
51122;SDS011;37162;41.724;13.346;2022-10-16T00:25:05;7.13;;;4.03;;
51122;SDS011;37162;41.724;13.346;2022-10-16T00:27:30;5.18;;;4.53;;
51122;SDS011;37162;41.724;13.346;2022-10-16T00:29:55;6.32;;;4.35;;
51122;SDS011;37162;41.724;13.346;2022-10-16T00:32:21;7.95;;;4.68;;
51122;SDS011;37162;41.724;13.346;2022-10-16T00:34:46;10.10;;;4.50;;
51122;SDS011;37162;41.724;13.346;2022-10-16T00:37:12;6.75;;;4.22;;
51122;SDS011;37162;41.724;13.346;2022-10-16T00:39:38;6.82;;;4.28;;
51122;SDS011;37162;41.724;13.346;2022-10-16T00:42:04;7.07;;;4.40;;
51122;SDS011;37162;41.724;13.346;2022-10-16T00:52:52;5.93;;;5.10;;
51122;SDS011;37162;41.724;13.346;2022-10-16T00:55:19;5.05;;;4.15;;
51122;SDS011;37162;41.724;13.346;2022-10-16T00:57:44;7.38;;;4.10;;
51122;SDS011;37162;41.724;13.346;2022-10-16T01:00:12;5.95;;;4.20;;
51122;SDS011;37162;41.724;13.346;2022-10-16T01:02:40;5.43;;;4.20;;
51122;SDS011;37162;41.724;13.346;2022-10-16T01:05:06;5.72;;;4.30;;
51122;SDS011;37162;41.724;13.346;2022-10-16T01:07:45;5.47;;;4.20;;
51122;SDS011;37162;41.724;13.346;2022-10-16T01:17:51;4.35;;;3.58;;
51122;SDS011;37162;41.724;13.346;2022-10-16T01:31:09;8.67;;;3.93;;
51122;SDS011;37162;41.724;13.346;2022-10-16T01:33:43;4.97;;;4.00;;
51122;SDS011;37162;41.724;13.346;2022-10-16T01:36:16;5.60;;;3.72;;
51122;SDS011;37162;41.724;13.346;2022-10-16T01:38:47;4.85;;;3.83;;
51122;SDS011;37162;41.724;13.346;2022-10-16T01:41:28;5.85;;;4.18;;
51122;SDS011;37162;41.724;13.346;2022-10-16T01:44:01;6.18;;;3.60;;
51122;SDS011;37162;41.724;13.346;2022-10-16T01:46:31;5.97;;;4.05;;
51122;SDS011;37162;41.724;13.346;2022-10-16T01:49:00;5.38;;;4.07;;
51122;SDS011;37162;41.724;13.346;2022-10-16T01:51:27;5.63;;;3.80;;
51122;SDS011;37162;41.724;13.346;2022-10-16T01:53:55;4.63;;;3.65;;
51122;SDS011;37162;41.724;13.346;2022-10-16T01:56:24;4.57;;;3.90;;
51122;SDS011;37162;41.724;13.346;2022-10-16T01:58:55;9.52;;;3.97;;
51122;SDS011;37162;41.724;13.346;2022-10-16T02:01:29;4.40;;;3.60;;
51122;SDS011;37162;41.724;13.346;2022-10-16T02:03:59;5.00;;;3.80;;
51122;SDS011;37162;41.724;13.346;2022-10-16T02:06:32;6.03;;;3.70;;
51122;SDS011;37162;41.724;13.346;2022-10-16T02:08:57;4.43;;;4.03;;
51122;SDS011;37162;41.724;13.346;2022-10-16T02:11:24;5.85;;;4.55;;
51122;SDS011;37162;41.724;13.346;2022-10-16T02:13:58;5.80;;;3.75;;
51122;SDS011;37162;41.724;13.346;2022-10-16T02:16:38;5.07;;;4.20;;
51122;SDS011;37162;41.724;13.346;2022-10-16T02:19:05;6.32;;;4.03;;
51122;SDS011;37162;41.724;13.346;2022-10-16T02:21:54;5.47;;;3.60;;
51122;SDS011;37162;41.724;13.346;2022-10-16T02:24:24;4.22;;;3.45;;
51122;SDS011;37162;41.724;13.346;2022-10-16T02:27:03;4.27;;;3.57;;
51122;SDS011;37162;41.724;13.346;2022-10-16T02:29:36;5.53;;;3.60;;
51122;SDS011;37162;41.724;13.346;2022-10-16T02:32:09;5.28;;;3.97;;
51122;SDS011;37162;41.724;13.346;2022-10-16T02:34:37;5.45;;;4.10;;
51122;SDS011;37162;41.724;13.346;2022-10-16T02:37:05;6.55;;;4.03;;
51122;SDS011;37162;41.724;13.346;2022-10-16T02:39:32;5.78;;;4.00;;
51122;SDS011;37162;41.724;13.346;2022-10-16T02:41:58;4.85;;;3.70;;
51122;SDS011;37162;41.724;13.346;2022-10-16T02:44:24;6.43;;;3.72;;
51122;SDS011;37162;41.724;13.346;2022-10-16T02:46:49;7.78;;;4.18;;
51122;SDS011;37162;41.724;13.346;2022-10-16T02:49:14;4.07;;;3.53;;
51122;SDS011;37162;41.724;13.346;2022-10-16T02:51:40;6.25;;;3.65;;
51122;SDS011;37162;41.724;13.346;2022-10-16T02:54:06;7.45;;;3.83;;
51122;SDS011;37162;41.724;13.346;2022-10-16T02:56:31;7.80;;;4.70;;
51122;SDS011;37162;41.724;13.346;2022-10-16T02:58:56;5.70;;;3.92;;
51122;SDS011;37162;41.724;13.346;2022-10-16T03:01:22;5.85;;;4.25;;
51122;SDS011;37162;41.724;13.346;2022-10-16T03:03:48;5.38;;;3.70;;
51122;SDS011;37162;41.724;13.346;2022-10-16T03:06:14;5.35;;;3.20;;
51122;SDS011;37162;41.724;13.346;2022-10-16T03:08:40;3.80;;;3.33;;
51122;SDS011;37162;41.724;13.346;2022-10-16T03:11:05;4.30;;;3.83;;
51122;SDS011;37162;41.724;13.346;2022-10-16T03:13:30;5.90;;;3.40;;
51122;SDS011;37162;41.724;13.346;2022-10-16T03:15:56;5.57;;;4.00;;
51122;SDS011;37162;41.724;13.346;2022-10-16T03:18:21;5.22;;;3.20;;
51122;SDS011;37162;41.724;13.346;2022-10-16T03:20:47;4.95;;;3.35;;
51122;SDS011;37162;41.724;13.346;2022-10-16T03:23:12;4.70;;;3.42;;
51122;SDS011;37162;41.724;13.346;2022-10-16T03:25:37;4.43;;;3.85;;
51122;SDS011;37162;41.724;13.346;2022-10-16T03:28:03;4.43;;;3.38;;
51122;SDS011;37162;41.724;13.346;2022-10-16T03:30:29;4.18;;;3.40;;
51122;SDS011;37162;41.724;13.346;2022-10-16T03:32:54;4.93;;;4.03;;
51122;SDS011;37162;41.724;13.346;2022-10-16T03:35:23;3.97;;;3.40;;
51122;SDS011;37162;41.724;13.346;2022-10-16T03:37:49;4.82;;;3.35;;
51122;SDS011;37162;41.724;13.346;2022-10-16T03:40:15;5.05;;;3.60;;
51122;SDS011;37162;41.724;13.346;2022-10-16T03:42:44;4.05;;;3.28;;
51122;SDS011;37162;41.724;13.346;2022-10-16T03:45:10;4.88;;;3.70;;
51122;SDS011;37162;41.724;13.346;2022-10-16T03:47:36;5.90;;;3.47;;
51122;SDS011;37162;41.724;13.346;2022-10-16T03:50:02;4.47;;;3.50;;
51122;SDS011;37162;41.724;13.346;2022-10-16T03:52:29;3.50;;;3.20;;
51122;SDS011;37162;41.724;13.346;2022-10-16T03:54:54;3.50;;;3.20;;
51122;SDS011;37162;41.724;13.346;2022-10-16T03:57:19;4.15;;;3.63;;
51122;SDS011;37162;41.724;13.346;2022-10-16T03:59:45;4.35;;;3.80;;
51122;SDS011;37162;41.724;13.346;2022-10-16T04:02:11;5.18;;;3.83;;
51122;SDS011;37162;41.724;13.346;2022-10-16T04:04:36;4.25;;;3.55;;
51122;SDS011;37162;41.724;13.346;2022-10-16T04:07:02;4.75;;;3.40;;
51122;SDS011;37162;41.724;13.346;2022-10-16T04:09:27;4.63;;;3.60;;
51122;SDS011;37162;41.724;13.346;2022-10-16T04:11:52;3.97;;;3.58;;
51122;SDS011;37162;41.724;13.346;2022-10-16T04:14:18;4.65;;;3.30;;
51122;SDS011;37162;41.724;13.346;2022-10-16T04:16:43;5.15;;;3.40;;
51122;SDS011;37162;41.724;13.346;2022-10-16T04:19:09;4.22;;;3.20;;
51122;SDS011;37162;41.724;13.346;2022-10-16T04:21:35;4.03;;;3.13;;
51122;SDS011;37162;41.724;13.346;2022-10-16T04:24:01;6.18;;;4.35;;
51122;SDS011;37162;41.724;13.346;2022-10-16T04:26:27;4.97;;;3.78;;
51122;SDS011;37162;41.724;13.346;2022-10-16T04:28:53;4.30;;;3.90;;
51122;SDS011;37162;41.724;13.346;2022-10-16T04:31:19;6.28;;;4.10;;
51122;SDS011;37162;41.724;13.346;2022-10-16T04:33:44;4.55;;;3.80;;
51122;SDS011;37162;41.724;13.346;2022-10-16T04:36:10;6.38;;;3.95;;
51122;SDS011;37162;41.724;13.346;2022-10-16T04:38:36;7.20;;;3.60;;
51122;SDS011;37162;41.724;13.346;2022-10-16T04:41:02;5.78;;;4.00;;
51122;SDS011;37162;41.724;13.346;2022-10-16T04:43:28;5.28;;;4.07;;
51122;SDS011;37162;41.724;13.346;2022-10-16T04:45:54;4.50;;;3.83;;
51122;SDS011;37162;41.724;13.346;2022-10-16T04:48:19;5.75;;;3.72;;
51122;SDS011;37162;41.724;13.346;2022-10-16T04:50:45;8.02;;;4.25;;
51122;SDS011;37162;41.724;13.346;2022-10-16T04:53:11;4.45;;;3.55;;
51122;SDS011;37162;41.724;13.346;2022-10-16T04:55:37;3.50;;;3.13;;
51122;SDS011;37162;41.724;13.346;2022-10-16T04:58:03;5.38;;;3.20;;
51122;SDS011;37162;41.724;13.346;2022-10-16T05:00:28;3.58;;;3.13;;
51122;SDS011;37162;41.724;13.346;2022-10-16T05:02:54;4.80;;;2.90;;
51122;SDS011;37162;41.724;13.346;2022-10-16T05:05:19;3.95;;;3.28;;
51122;SDS011;37162;41.724;13.346;2022-10-16T05:07:45;4.20;;;3.70;;
51122;SDS011;37162;41.724;13.346;2022-10-16T05:10:12;5.93;;;2.95;;
51122;SDS011;37162;41.724;13.346;2022-10-16T05:12:37;6.00;;;3.25;;
51122;SDS011;37162;41.724;13.346;2022-10-16T05:15:03;5.38;;;3.45;;
51122;SDS011;37162;41.724;13.346;2022-10-16T05:17:28;5.18;;;3.17;;
51122;SDS011;37162;41.724;13.346;2022-10-16T05:19:54;4.38;;;3.40;;
51122;SDS011;37162;41.724;13.346;2022-10-16T05:22:19;5.18;;;3.67;;
51122;SDS011;37162;41.724;13.346;2022-10-16T05:24:45;4.70;;;3.10;;
51122;SDS011;37162;41.724;13.346;2022-10-16T05:27:10;5.18;;;3.47;;
51122;SDS011;37162;41.724;13.346;2022-10-16T05:29:43;15.35;;;4.72;;
51122;SDS011;37162;41.724;13.346;2022-10-16T05:32:12;13.20;;;3.83;;
51122;SDS011;37162;41.724;13.346;2022-10-16T05:34:38;11.60;;;3.72;;
51122;SDS011;37162;41.724;13.346;2022-10-16T05:37:04;6.05;;;3.58;;
51122;SDS011;37162;41.724;13.346;2022-10-16T05:39:29;5.10;;;3.45;;
51122;SDS011;37162;41.724;13.346;2022-10-16T05:41:55;6.78;;;3.17;;
51122;SDS011;37162;41.724;13.346;2022-10-16T05:44:20;6.10;;;3.38;;
51122;SDS011;37162;41.724;13.346;2022-10-16T05:46:46;4.20;;;3.17;;
51122;SDS011;37162;41.724;13.346;2022-10-16T05:49:12;4.93;;;3.40;;
51122;SDS011;37162;41.724;13.346;2022-10-16T05:51:37;4.45;;;3.70;;
51122;SDS011;37162;41.724;13.346;2022-10-16T05:54:03;7.07;;;3.60;;
51122;SDS011;37162;41.724;13.346;2022-10-16T05:56:28;4.45;;;3.38;;
51122;SDS011;37162;41.724;13.346;2022-10-16T05:58:54;7.68;;;3.47;;
51122;SDS011;37162;41.724;13.346;2022-10-16T06:01:19;3.85;;;2.88;;
51122;SDS011;37162;41.724;13.346;2022-10-16T06:03:49;5.75;;;3.28;;
51122;SDS011;37162;41.724;13.346;2022-10-16T06:06:17;4.13;;;3.03;;
51122;SDS011;37162;41.724;13.346;2022-10-16T06:08:45;5.28;;;3.78;;
51122;SDS011;37162;41.724;13.346;2022-10-16T06:11:12;5.20;;;3.35;;
51122;SDS011;37162;41.724;13.346;2022-10-16T06:13:39;5.13;;;3.40;;
51122;SDS011;37162;41.724;13.346;2022-10-16T06:16:07;3.83;;;3.10;;
51122;SDS011;37162;41.724;13.346;2022-10-16T06:18:34;5.38;;;3.25;;
51122;SDS011;37162;41.724;13.346;2022-10-16T06:20:59;4.50;;;2.80;;
51122;SDS011;37162;41.724;13.346;2022-10-16T06:23:31;3.63;;;2.65;;
51122;SDS011;37162;41.724;13.346;2022-10-16T06:26:03;4.68;;;3.10;;
51122;SDS011;37162;41.724;13.346;2022-10-16T06:28:30;5.95;;;3.00;;
51122;SDS011;37162;41.724;13.346;2022-10-16T06:30:59;4.07;;;3.05;;
51122;SDS011;37162;41.724;13.346;2022-10-16T06:33:28;6.85;;;3.20;;
51122;SDS011;37162;41.724;13.346;2022-10-16T06:35:54;3.47;;;2.85;;
51122;SDS011;37162;41.724;13.346;2022-10-16T06:38:25;5.07;;;3.00;;
51122;SDS011;37162;41.724;13.346;2022-10-16T06:40:52;5.97;;;3.55;;
51122;SDS011;37162;41.724;13.346;2022-10-16T06:43:18;3.92;;;3.10;;
51122;SDS011;37162;41.724;13.346;2022-10-16T06:45:49;7.72;;;3.42;;
51122;SDS011;37162;41.724;13.346;2022-10-16T06:48:18;5.22;;;3.40;;
51122;SDS011;37162;41.724;13.346;2022-10-16T06:50:44;7.00;;;4.07;;
51122;SDS011;37162;41.724;13.346;2022-10-16T06:53:09;7.75;;;3.20;;
51122;SDS011;37162;41.724;13.346;2022-10-16T06:55:34;4.35;;;3.10;;
51122;SDS011;37162;41.724;13.346;2022-10-16T06:58:00;4.25;;;3.42;;
51122;SDS011;37162;41.724;13.346;2022-10-16T07:00:25;8.13;;;3.15;;
51122;SDS011;37162;41.724;13.346;2022-10-16T07:02:51;6.13;;;2.90;;
51122;SDS011;37162;41.724;13.346;2022-10-16T07:05:16;5.38;;;3.17;;
51122;SDS011;37162;41.724;13.346;2022-10-16T07:07:41;4.13;;;3.30;;
51122;SDS011;37162;41.724;13.346;2022-10-16T07:10:07;4.70;;;3.33;;
51122;SDS011;37162;41.724;13.346;2022-10-16T07:12:33;3.55;;;2.90;;
51122;SDS011;37162;41.724;13.346;2022-10-16T07:14:58;5.47;;;3.88;;
51122;SDS011;37162;41.724;13.346;2022-10-16T07:17:24;6.97;;;3.60;;
51122;SDS011;37162;41.724;13.346;2022-10-16T07:19:49;13.13;;;7.15;;
51122;SDS011;37162;41.724;13.346;2022-10-16T07:22:17;8.25;;;4.72;;
51122;SDS011;37162;41.724;13.346;2022-10-16T07:24:43;15.90;;;7.93;;
51122;SDS011;37162;41.724;13.346;2022-10-16T07:27:09;13.23;;;6.22;;
51122;SDS011;37162;41.724;13.346;2022-10-16T07:29:34;7.68;;;3.92;;
51122;SDS011;37162;41.724;13.346;2022-10-16T07:32:01;5.93;;;4.20;;
51122;SDS011;37162;41.724;13.346;2022-10-16T07:34:30;8.15;;;4.93;;
51122;SDS011;37162;41.724;13.346;2022-10-16T07:36:55;7.60;;;4.80;;
51122;SDS011;37162;41.724;13.346;2022-10-16T07:39:20;6.63;;;4.55;;
51122;SDS011;37162;41.724;13.346;2022-10-16T07:41:46;9.20;;;5.00;;
51122;SDS011;37162;41.724;13.346;2022-10-16T07:44:11;11.02;;;5.60;;
51122;SDS011;37162;41.724;13.346;2022-10-16T07:46:37;9.32;;;4.43;;
51122;SDS011;37162;41.724;13.346;2022-10-16T07:49:02;11.73;;;5.65;;
51122;SDS011;37162;41.724;13.346;2022-10-16T07:51:28;7.15;;;4.47;;
51122;SDS011;37162;41.724;13.346;2022-10-16T07:53:53;9.07;;;4.95;;
51122;SDS011;37162;41.724;13.346;2022-10-16T07:56:19;10.13;;;4.47;;
51122;SDS011;37162;41.724;13.346;2022-10-16T07:58:46;9.50;;;5.03;;
51122;SDS011;37162;41.724;13.346;2022-10-16T08:01:12;8.60;;;4.50;;
51122;SDS011;37162;41.724;13.346;2022-10-16T08:03:46;7.18;;;4.35;;
51122;SDS011;37162;41.724;13.346;2022-10-16T08:06:13;6.43;;;4.65;;
51122;SDS011;37162;41.724;13.346;2022-10-16T08:08:39;6.53;;;3.95;;
51122;SDS011;37162;41.724;13.346;2022-10-16T08:11:05;8.07;;;4.47;;
51122;SDS011;37162;41.724;13.346;2022-10-16T08:13:31;5.50;;;4.05;;
51122;SDS011;37162;41.724;13.346;2022-10-16T08:15:57;5.97;;;3.88;;
51122;SDS011;37162;41.724;13.346;2022-10-16T08:18:23;5.80;;;4.18;;
51122;SDS011;37162;41.724;13.346;2022-10-16T08:20:55;8.20;;;4.57;;
51122;SDS011;37162;41.724;13.346;2022-10-16T08:23:39;8.30;;;4.40;;
51122;SDS011;37162;41.724;13.346;2022-10-16T08:26:05;5.75;;;4.15;;
51122;SDS011;37162;41.724;13.346;2022-10-16T08:28:32;6.35;;;4.75;;
51122;SDS011;37162;41.724;13.346;2022-10-16T08:31:32;9.95;;;4.07;;
51122;SDS011;37162;41.724;13.346;2022-10-16T08:33:52;8.35;;;4.30;;
51122;SDS011;37162;41.724;13.346;2022-10-16T08:36:17;8.77;;;4.63;;
51122;SDS011;37162;41.724;13.346;2022-10-16T08:38:43;7.55;;;4.68;;
51122;SDS011;37162;41.724;13.346;2022-10-16T08:49:21;8.97;;;5.80;;
51122;SDS011;37162;41.724;13.346;2022-10-16T08:51:49;12.07;;;6.03;;
51122;SDS011;37162;41.724;13.346;2022-10-16T08:57:09;9.25;;;5.95;;
51122;SDS011;37162;41.724;13.346;2022-10-16T08:59:38;7.97;;;5.47;;
51122;SDS011;37162;41.724;13.346;2022-10-16T09:02:08;10.48;;;6.50;;
51122;SDS011;37162;41.724;13.346;2022-10-16T09:18:05;12.93;;;6.35;;
51122;SDS011;37162;41.724;13.346;2022-10-16T09:21:15;10.75;;;6.32;;
51122;SDS011;37162;41.724;13.346;2022-10-16T09:23:36;9.40;;;5.93;;
51122;SDS011;37162;41.724;13.346;2022-10-16T09:26:02;11.45;;;6.45;;
51122;SDS011;37162;41.724;13.346;2022-10-16T09:28:30;10.45;;;6.20;;
51122;SDS011;37162;41.724;13.346;2022-10-16T09:30:55;12.05;;;6.38;;
51122;SDS011;37162;41.724;13.346;2022-10-16T09:33:23;8.85;;;5.78;;
51122;SDS011;37162;41.724;13.346;2022-10-16T09:38:27;8.60;;;6.15;;
51122;SDS011;37162;41.724;13.346;2022-10-16T09:40:55;12.32;;;6.05;;
51122;SDS011;37162;41.724;13.346;2022-10-16T09:46:06;10.48;;;5.93;;
51122;SDS011;37162;41.724;13.346;2022-10-16T09:51:28;9.23;;;5.78;;
51122;SDS011;37162;41.724;13.346;2022-10-16T09:53:56;9.70;;;6.45;;
51122;SDS011;37162;41.724;13.346;2022-10-16T09:56:26;10.10;;;6.10;;
51122;SDS011;37162;41.724;13.346;2022-10-16T09:58:55;9.53;;;6.60;;
51122;SDS011;37162;41.724;13.346;2022-10-16T10:01:22;7.72;;;5.55;;
51122;SDS011;37162;41.724;13.346;2022-10-16T10:03:55;8.65;;;6.25;;
51122;SDS011;37162;41.724;13.346;2022-10-16T10:06:36;11.82;;;6.43;;
51122;SDS011;37162;41.724;13.346;2022-10-16T10:09:23;8.95;;;6.38;;
51122;SDS011;37162;41.724;13.346;2022-10-16T10:14:43;7.88;;;6.15;;
51122;SDS011;37162;41.724;13.346;2022-10-16T10:17:13;8.35;;;5.90;;
51122;SDS011;37162;41.724;13.346;2022-10-16T10:19:55;9.85;;;5.72;;
51122;SDS011;37162;41.724;13.346;2022-10-16T10:22:24;8.73;;;5.85;;
51122;SDS011;37162;41.724;13.346;2022-10-16T10:41:08;11.35;;;6.22;;
51122;SDS011;37162;41.724;13.346;2022-10-16T10:46:34;7.40;;;5.93;;
51122;SDS011;37162;41.724;13.346;2022-10-16T10:54:29;7.00;;;5.07;;
51122;SDS011;37162;41.724;13.346;2022-10-16T10:57:25;10.25;;;6.03;;
51122;SDS011;37162;41.724;13.346;2022-10-16T11:08:00;7.50;;;5.00;;
51122;SDS011;37162;41.724;13.346;2022-10-16T11:16:14;7.25;;;4.97;;
51122;SDS011;37162;41.724;13.346;2022-10-16T11:21:36;6.15;;;4.63;;
51122;SDS011;37162;41.724;13.346;2022-10-16T11:24:15;6.90;;;5.20;;
51122;SDS011;37162;41.724;13.346;2022-10-16T11:26:48;5.85;;;4.57;;
51122;SDS011;37162;41.724;13.346;2022-10-16T11:29:23;6.32;;;5.43;;
51122;SDS011;37162;41.724;13.346;2022-10-16T11:31:59;6.47;;;4.82;;
51122;SDS011;37162;41.724;13.346;2022-10-16T11:34:32;8.18;;;4.65;;
51122;SDS011;37162;41.724;13.346;2022-10-16T11:39:29;8.13;;;5.38;;
51122;SDS011;37162;41.724;13.346;2022-10-16T11:44:51;9.27;;;4.97;;
51122;SDS011;37162;41.724;13.346;2022-10-16T11:55:59;6.45;;;4.47;;
51122;SDS011;37162;41.724;13.346;2022-10-16T12:01:10;5.35;;;4.45;;
51122;SDS011;37162;41.724;13.346;2022-10-16T12:06:36;5.30;;;4.10;;
51122;SDS011;37162;41.724;13.346;2022-10-16T12:09:05;6.50;;;3.75;;
51122;SDS011;37162;41.724;13.346;2022-10-16T12:12:00;7.47;;;3.92;;
51122;SDS011;37162;41.724;13.346;2022-10-16T12:17:02;4.95;;;3.95;;
51122;SDS011;37162;41.724;13.346;2022-10-16T12:20:01;6.93;;;4.43;;
51122;SDS011;37162;41.724;13.346;2022-10-16T12:22:48;6.45;;;4.55;;
51122;SDS011;37162;41.724;13.346;2022-10-16T12:30:24;6.50;;;4.63;;
51122;SDS011;37162;41.724;13.346;2022-10-16T12:32:55;5.10;;;4.47;;
51122;SDS011;37162;41.724;13.346;2022-10-16T12:35:31;4.47;;;3.97;;
51122;SDS011;37162;41.724;13.346;2022-10-16T12:38:14;5.95;;;4.25;;
51122;SDS011;37162;41.724;13.346;2022-10-16T12:40:46;4.22;;;3.80;;
51122;SDS011;37162;41.724;13.346;2022-10-16T12:45:45;6.80;;;3.92;;
51122;SDS011;37162;41.724;13.346;2022-10-16T12:48:18;6.85;;;3.88;;
51122;SDS011;37162;41.724;13.346;2022-10-16T12:50:46;6.18;;;3.83;;
51122;SDS011;37162;41.724;13.346;2022-10-16T12:53:18;4.43;;;3.90;;
51122;SDS011;37162;41.724;13.346;2022-10-16T12:58:37;4.82;;;4.07;;
51122;SDS011;37162;41.724;13.346;2022-10-16T13:01:37;4.57;;;3.85;;
51122;SDS011;37162;41.724;13.346;2022-10-16T13:07:32;6.13;;;4.28;;
51122;SDS011;37162;41.724;13.346;2022-10-16T13:09:50;5.35;;;3.70;;
51122;SDS011;37162;41.724;13.346;2022-10-16T13:15:09;3.90;;;3.33;;
51122;SDS011;37162;41.724;13.346;2022-10-16T13:20:30;4.60;;;4.00;;
51122;SDS011;37162;41.724;13.346;2022-10-16T13:23:15;4.50;;;3.78;;
51122;SDS011;37162;41.724;13.346;2022-10-16T13:28:15;4.75;;;3.75;;
51122;SDS011;37162;41.724;13.346;2022-10-16T13:30:51;4.40;;;3.72;;
51122;SDS011;37162;41.724;13.346;2022-10-16T13:33:19;4.68;;;3.75;;
51122;SDS011;37162;41.724;13.346;2022-10-16T13:35:50;4.43;;;3.72;;
51122;SDS011;37162;41.724;13.346;2022-10-16T13:38:19;4.55;;;3.95;;
51122;SDS011;37162;41.724;13.346;2022-10-16T13:43:20;5.80;;;3.80;;
51122;SDS011;37162;41.724;13.346;2022-10-16T13:45:59;4.65;;;4.07;;
51122;SDS011;37162;41.724;13.346;2022-10-16T13:48:27;4.93;;;3.88;;
51122;SDS011;37162;41.724;13.346;2022-10-16T13:51:01;5.10;;;3.95;;
51122;SDS011;37162;41.724;13.346;2022-10-16T13:53:32;5.43;;;3.78;;
51122;SDS011;37162;41.724;13.346;2022-10-16T13:55:59;5.25;;;4.07;;
51122;SDS011;37162;41.724;13.346;2022-10-16T13:58:26;4.63;;;3.85;;
51122;SDS011;37162;41.724;13.346;2022-10-16T14:00:56;4.78;;;3.50;;
51122;SDS011;37162;41.724;13.346;2022-10-16T14:03:23;4.20;;;3.40;;
51122;SDS011;37162;41.724;13.346;2022-10-16T14:05:52;7.18;;;4.28;;
51122;SDS011;37162;41.724;13.346;2022-10-16T14:08:20;3.92;;;3.53;;
51122;SDS011;37162;41.724;13.346;2022-10-16T14:10:48;4.05;;;3.60;;
51122;SDS011;37162;41.724;13.346;2022-10-16T14:13:17;6.63;;;3.15;;
51122;SDS011;37162;41.724;13.346;2022-10-16T14:15:46;5.45;;;3.72;;
51122;SDS011;37162;41.724;13.346;2022-10-16T14:18:19;3.88;;;3.47;;
51122;SDS011;37162;41.724;13.346;2022-10-16T14:20:48;7.10;;;4.20;;
51122;SDS011;37162;41.724;13.346;2022-10-16T14:23:22;4.00;;;3.28;;
51122;SDS011;37162;41.724;13.346;2022-10-16T14:25:53;5.00;;;3.72;;
51122;SDS011;37162;41.724;13.346;2022-10-16T14:28:20;3.90;;;3.50;;
51122;SDS011;37162;41.724;13.346;2022-10-16T14:33:22;3.60;;;3.30;;
51122;SDS011;37162;41.724;13.346;2022-10-16T14:36:03;7.28;;;3.90;;
51122;SDS011;37162;41.724;13.346;2022-10-16T14:38:37;4.22;;;3.50;;
51122;SDS011;37162;41.724;13.346;2022-10-16T14:41:04;4.10;;;3.72;;
51122;SDS011;37162;41.724;13.346;2022-10-16T14:43:40;4.45;;;3.60;;
51122;SDS011;37162;41.724;13.346;2022-10-16T14:46:12;5.05;;;3.33;;
51122;SDS011;37162;41.724;13.346;2022-10-16T14:48:46;4.80;;;3.42;;
51122;SDS011;37162;41.724;13.346;2022-10-16T14:51:17;3.88;;;3.47;;
51122;SDS011;37162;41.724;13.346;2022-10-16T14:53:43;3.47;;;3.00;;
51122;SDS011;37162;41.724;13.346;2022-10-16T14:56:19;3.92;;;3.20;;
51122;SDS011;37162;41.724;13.346;2022-10-16T14:58:46;4.53;;;3.40;;
51122;SDS011;37162;41.724;13.346;2022-10-16T15:01:12;4.55;;;3.30;;
51122;SDS011;37162;41.724;13.346;2022-10-16T15:03:38;4.38;;;3.13;;
51122;SDS011;37162;41.724;13.346;2022-10-16T15:06:04;4.15;;;3.40;;
51122;SDS011;37162;41.724;13.346;2022-10-16T15:08:36;6.25;;;4.07;;
51122;SDS011;37162;41.724;13.346;2022-10-16T15:11:01;14.18;;;5.38;;
51122;SDS011;37162;41.724;13.346;2022-10-16T15:13:26;10.45;;;5.20;;
51122;SDS011;37162;41.724;13.346;2022-10-16T15:15:52;11.27;;;4.97;;
51122;SDS011;37162;41.724;13.346;2022-10-16T15:18:18;10.13;;;4.63;;
51122;SDS011;37162;41.724;13.346;2022-10-16T15:20:50;4.72;;;3.50;;
51122;SDS011;37162;41.724;13.346;2022-10-16T15:23:17;5.53;;;3.75;;
51122;SDS011;37162;41.724;13.346;2022-10-16T15:28:11;7.60;;;3.92;;
51122;SDS011;37162;41.724;13.346;2022-10-16T15:30:38;4.88;;;3.22;;
51122;SDS011;37162;41.724;13.346;2022-10-16T15:33:04;6.43;;;3.80;;
51122;SDS011;37162;41.724;13.346;2022-10-16T15:35:34;6.55;;;3.65;;
51122;SDS011;37162;41.724;13.346;2022-10-16T15:38:00;10.32;;;4.03;;
51122;SDS011;37162;41.724;13.346;2022-10-16T15:40:25;13.68;;;5.07;;
51122;SDS011;37162;41.724;13.346;2022-10-16T15:42:51;12.50;;;4.10;;
51122;SDS011;37162;41.724;13.346;2022-10-16T15:45:16;6.32;;;3.70;;
51122;SDS011;37162;41.724;13.346;2022-10-16T15:47:42;8.43;;;3.92;;
51122;SDS011;37162;41.724;13.346;2022-10-16T15:50:09;6.93;;;4.10;;
51122;SDS011;37162;41.724;13.346;2022-10-16T15:52:36;6.57;;;4.13;;
51122;SDS011;37162;41.724;13.346;2022-10-16T15:55:01;12.25;;;4.35;;
51122;SDS011;37162;41.724;13.346;2022-10-16T15:57:28;4.68;;;3.40;;
51122;SDS011;37162;41.724;13.346;2022-10-16T15:59:54;12.20;;;3.75;;
51122;SDS011;37162;41.724;13.346;2022-10-16T16:02:19;8.80;;;3.92;;
51122;SDS011;37162;41.724;13.346;2022-10-16T16:04:45;6.32;;;3.13;;
51122;SDS011;37162;41.724;13.346;2022-10-16T16:07:10;6.20;;;3.47;;
51122;SDS011;37162;41.724;13.346;2022-10-16T16:09:36;8.90;;;3.45;;
51122;SDS011;37162;41.724;13.346;2022-10-16T16:12:01;8.90;;;3.30;;
51122;SDS011;37162;41.724;13.346;2022-10-16T16:14:27;3.55;;;3.20;;
51122;SDS011;37162;41.724;13.346;2022-10-16T16:16:55;7.90;;;4.70;;
51122;SDS011;37162;41.724;13.346;2022-10-16T16:19:21;16.52;;;5.28;;
51122;SDS011;37162;41.724;13.346;2022-10-16T16:21:47;9.55;;;4.38;;
51122;SDS011;37162;41.724;13.346;2022-10-16T16:24:13;17.05;;;4.88;;
51122;SDS011;37162;41.724;13.346;2022-10-16T16:26:39;13.77;;;4.15;;
51122;SDS011;37162;41.724;13.346;2022-10-16T16:29:09;10.80;;;4.47;;
51122;SDS011;37162;41.724;13.346;2022-10-16T16:31:38;16.67;;;4.10;;
51122;SDS011;37162;41.724;13.346;2022-10-16T16:34:04;8.95;;;4.13;;
51122;SDS011;37162;41.724;13.346;2022-10-16T16:36:29;8.38;;;3.97;;
51122;SDS011;37162;41.724;13.346;2022-10-16T16:38:55;6.32;;;4.72;;
51122;SDS011;37162;41.724;13.346;2022-10-16T16:41:22;5.72;;;3.97;;
51122;SDS011;37162;41.724;13.346;2022-10-16T16:43:50;8.77;;;5.40;;
51122;SDS011;37162;41.724;13.346;2022-10-16T16:46:17;14.15;;;4.32;;
51122;SDS011;37162;41.724;13.346;2022-10-16T16:48:43;7.45;;;5.05;;
51122;SDS011;37162;41.724;13.346;2022-10-16T16:51:10;6.65;;;4.50;;
51122;SDS011;37162;41.724;13.346;2022-10-16T16:53:41;6.90;;;4.20;;
51122;SDS011;37162;41.724;13.346;2022-10-16T16:56:08;7.95;;;4.80;;
51122;SDS011;37162;41.724;13.346;2022-10-16T16:58:34;6.57;;;4.82;;
51122;SDS011;37162;41.724;13.346;2022-10-16T17:01:00;10.30;;;4.78;;
51122;SDS011;37162;41.724;13.346;2022-10-16T17:03:33;7.40;;;4.88;;
51122;SDS011;37162;41.724;13.346;2022-10-16T17:06:03;7.88;;;5.20;;
51122;SDS011;37162;41.724;13.346;2022-10-16T17:08:30;9.75;;;6.18;;
51122;SDS011;37162;41.724;13.346;2022-10-16T17:10:56;7.85;;;5.72;;
51122;SDS011;37162;41.724;13.346;2022-10-16T17:13:23;8.35;;;5.57;;
51122;SDS011;37162;41.724;13.346;2022-10-16T17:15:49;6.70;;;5.25;;